Decoded Metar for PGUA (ANDERSEN in MARIANA ISLANDS) (IATA:UAM) | Meteo·Mobile Aviation Weather
aviador You're here:

PGUA Decoded Metar

ANDERSEN in MARIANA ISLANDS
Report Time2019-10-18 13:13:00
UTC Time2019-10-18 13:23:37
Flight Rules mvfr MVFR
Wind080° at 10 kt
W.Decomp.*RWY 06: 9.5 kt HW 3.1 kt RCW
Visibility9999 m
Phenomena:N/A
Clouds:Scattered 008 Hf
Scattered 014 Hf
Broken 024 Hf
Broken 045 Hf
Expected CloudBase > 400 ft AGL from Temp-Dew spread
Ceiling2,400 ft
Temp25°C (ISA +11)
Dew Point24°C (94% RH)
QNH1014 hPa
Density Alt2,274 ft
Elevation614 ft
Report Wrong Elevation
Raw Report
PGUA 181313Z 08010KT 10SM SCT008 SCT014 BKN024 BKN045 25/24 A2993
RMK AO2A RAB1252E12 SCT014 V BKN SLP126 $=

Extra information for PGUA:More info

Metar Taf Metar & Taf Last 4 Metars F.Rules Stats Wind Profile Meteogram Temp Stats Airport Information Weather charts Add Link Nearby VenuesMetar ALERT Operation Metar Decoded Social comments